Time;durP1;ratioP1;P1;durP2;ratioP2;P2;SDS_P1;SDS_P2;PMS_P1;PMS_P2;Temp;Humidity;BMP_temperature;BMP_pressure;BME280_temperature;BME280_humidity;BME280_pressure;Samples;Min_cycle;Max_cycle;Signal;HPM_P1;HPM_P2
2023/03/30 00:01:18;;;;;;;23.38;15.90;;;;;;;;;;6249084;22;20095;-74
2023/03/30 00:03:44;;;;;;;19.00;12.85;;;;;;;;;;6246860;22;20069;-74
2023/03/30 00:06:11;;;;;;;28.40;15.10;;;;;;;;;;6273563;22;20023;-75
2023/03/30 00:08:40;;;;;;;26.27;14.63;;;;;;;;;;6272614;22;20057;-74
2023/03/30 00:11:07;;;;;;;23.35;14.80;;;;;;;;;;6248242;22;20183;-74
2023/03/30 00:13:33;;;;;;;19.65;13.73;;;;;;;;;;6276907;22;20468;-75
2023/03/30 00:15:59;;;;;;;22.65;15.75;;;;;;;;;;6276574;22;20514;-75
2023/03/30 00:18:25;;;;;;;23.52;14.55;;;;;;;;;;6276512;22;20037;-75
2023/03/30 00:20:51;;;;;;;21.15;15.07;;;;;;;;;;6277076;22;20205;-75
2023/03/30 00:23:18;;;;;;;25.77;14.88;;;;;;;;;;6249538;22;20007;-74
2023/03/30 00:25:44;;;;;;;25.80;15.52;;;;;;;;;;6278333;22;20063;-76
2023/03/30 00:28:10;;;;;;;24.35;13.98;;;;;;;;;;6248719;22;20506;-76
2023/03/30 00:30:36;;;;;;;22.13;12.15;;;;;;;;;;6249265;22;20011;-75
2023/03/30 00:33:02;;;;;;;20.38;12.82;;;;;;;;;;6274196;22;20023;-75
2023/03/30 00:35:30;;;;;;;27.30;15.85;;;;;;;;;;6245716;22;20012;-75
2023/03/30 00:37:56;;;;;;;23.50;13.90;;;;;;;;;;6272784;22;20106;-75
2023/03/30 00:40:23;;;;;;;28.98;16.08;;;;;;;;;;6273589;22;20055;-76
2023/03/30 00:42:49;;;;;;;29.42;15.82;;;;;;;;;;6247078;22;20008;-75
2023/03/30 00:45:17;;;;;;;24.55;15.52;;;;;;;;;;6246656;22;20077;-76
2023/03/30 00:47:58;;;;;;;28.80;17.02;;;;;;;;;;6271859;22;20016;-76
2023/03/30 00:50:26;;;;;;;31.77;15.95;;;;;;;;;;6271848;22;20015;-76
2023/03/30 00:52:53;;;;;;;35.92;17.48;;;;;;;;;;6245255;22;20019;-76
2023/03/30 00:55:20;;;;;;;33.13;17.55;;;;;;;;;;6244937;22;20011;-75
2023/03/30 00:57:46;;;;;;;35.05;17.63;;;;;;;;;;6244530;22;20012;-76
2023/03/30 01:00:13;;;;;;;25.33;15.98;;;;;;;;;;6271555;22;20157;-75
2023/03/30 01:02:45;;;;;;;27.20;14.48;;;;;;;;;;6244662;22;20015;-76
2023/03/30 01:05:11;;;;;;;34.58;17.67;;;;;;;;;;6271859;22;20146;-75
2023/03/30 01:07:38;;;;;;;32.70;17.77;;;;;;;;;;6271416;22;20449;-76
2023/03/30 01:10:04;;;;;;;34.35;16.40;;;;;;;;;;6244559;22;20065;-75
2023/03/30 01:12:30;;;;;;;36.75;17.70;;;;;;;;;;6271665;22;20077;-75
2023/03/30 01:14:56;;;;;;;30.85;15.93;;;;;;;;;;6272616;22;20007;-76
2023/03/30 01:17:46;;;;;;;35.63;17.48;;;;;;;;;;6249305;22;20440;-76
2023/03/30 01:20:21;;;;;;;39.97;19.20;;;;;;;;;;6237438;22;20371;-76
2023/03/30 01:22:49;;;;;;;39.75;17.95;;;;;;;;;;6250713;22;20039;-77
2023/03/30 01:25:27;;;;;;;40.15;16.83;;;;;;;;;;6278903;22;20015;-76
2023/03/30 01:27:57;;;;;;;37.50;16.73;;;;;;;;;;6280114;22;20020;-77
2023/03/30 01:30:23;;;;;;;34.85;17.73;;;;;;;;;;6275266;22;20011;-76
2023/03/30 01:33:01;;;;;;;35.05;16.30;;;;;;;;;;6251858;22;20030;-76
2023/03/30 01:35:51;;;;;;;35.63;18.90;;;;;;;;;;6244357;22;20198;-77
2023/03/30 01:38:17;;;;;;;38.45;17.60;;;;;;;;;;6202512;22;20011;-76
2023/03/30 01:40:53;;;;;;;41.50;20.13;;;;;;;;;;6276564;22;20062;-77
2023/03/30 01:43:23;;;;;;;38.72;21.52;;;;;;;;;;6200787;22;20329;-77
2023/03/30 01:45:49;;;;;;;35.90;18.30;;;;;;;;;;6277343;22;20015;-75
2023/03/30 01:48:28;;;;;;;30.90;17.77;;;;;;;;;;6270768;22;20019;-76
2023/03/30 01:50:59;;;;;;;43.53;19.90;;;;;;;;;;6244597;22;20020;-77
2023/03/30 01:53:34;;;;;;;39.85;19.42;;;;;;;;;;6243865;22;20015;-77
2023/03/30 01:56:07;;;;;;;35.38;18.88;;;;;;;;;;6244565;22;20014;-77
2023/03/30 01:58:38;;;;;;;43.35;21.10;;;;;;;;;;6244862;22;20050;-76
2023/03/30 02:01:05;;;;;;;46.92;21.15;;;;;;;;;;6244367;22;20042;-76
2023/03/30 02:03:31;;;;;;;40.60;19.80;;;;;;;;;;6244272;22;20082;-76
2023/03/30 02:06:02;;;;;;;32.95;16.25;;;;;;;;;;6218819;22;20012;-76
2023/03/30 02:08:29;;;;;;;41.35;21.17;;;;;;;;;;6218644;22;20086;-76
2023/03/30 02:10:56;;;;;;;34.78;18.83;;;;;;;;;;6268922;22;20047;-76
2023/03/30 02:13:22;;;;;;;31.05;19.35;;;;;;;;;;6244137;22;20422;-77
2023/03/30 02:15:50;;;;;;;36.47;20.98;;;;;;;;;;6218434;22;20035;-76
2023/03/30 02:18:18;;;;;;;32.20;20.13;;;;;;;;;;6243694;22;20011;-77
2023/03/30 02:20:46;;;;;;;31.55;16.25;;;;;;;;;;6243502;22;20532;-77
2023/03/30 02:23:13;;;;;;;32.55;17.55;;;;;;;;;;6271105;22;20007;-77
2023/03/30 02:25:39;;;;;;;28.02;16.83;;;;;;;;;;6243706;22;20046;-77
2023/03/30 02:28:06;;;;;;;26.85;16.92;;;;;;;;;;6270887;22;20008;-76
2023/03/30 02:30:32;;;;;;;24.88;14.65;;;;;;;;;;6243622;22;20046;-76
2023/03/30 02:32:58;;;;;;;28.13;15.57;;;;;;;;;;6270776;22;20058;-76
2023/03/30 02:35:24;;;;;;;22.60;14.93;;;;;;;;;;6219622;22;20012;-77
2023/03/30 02:38:02;;;;;;;23.83;14.52;;;;;;;;;;6246188;22;20016;-76
2023/03/30 02:40:48;;;;;;;26.98;14.98;;;;;;;;;;6244303;22;20058;-76
2023/03/30 02:43:20;;;;;;;26.52;15.80;;;;;;;;;;6244475;22;20075;-76
2023/03/30 02:45:51;;;;;;;24.85;15.00;;;;;;;;;;6268013;22;20026;-76
2023/03/30 02:48:21;;;;;;;29.17;17.75;;;;;;;;;;6218478;22;20012;-76
2023/03/30 02:50:47;;;;;;;25.02;15.55;;;;;;;;;;6243398;22;20065;-76
2023/03/30 02:54:02;;;;;;;22.38;14.15;;;;;;;;;;6270626;22;20051;-77
2023/03/30 02:56:53;;;;;;;25.33;15.27;;;;;;;;;;6178003;22;20467;-77
2023/03/30 02:59:20;;;;;;;19.45;14.75;;;;;;;;;;6243757;22;20022;-75
2023/03/30 03:02:06;;;;;;;21.45;14.45;;;;;;;;;;6242898;22;20448;-76
2023/03/30 03:04:33;;;;;;;18.00;12.73;;;;;;;;;;6217661;22;20003;-77
2023/03/30 03:07:20;;;;;;;14.13;11.18;;;;;;;;;;6270408;22;20015;-76
2023/03/30 03:09:46;;;;;;;12.32;9.43;;;;;;;;;;6242894;22;20012;-76
2023/03/30 03:12:13;;;;;;;11.95;10.57;;;;;;;;;;6243750;22;20166;-77
2023/03/30 03:14:40;;;;;;;13.02;9.18;;;;;;;;;;6245063;22;20011;-78
2023/03/30 03:17:07;;;;;;;9.77;8.75;;;;;;;;;;6271846;22;20077;-78
2023/03/30 03:19:38;;;;;;;12.27;9.05;;;;;;;;;;6244573;22;20036;-78
2023/03/30 03:22:04;;;;;;;10.23;8.18;;;;;;;;;;6242765;22;20023;-78
2023/03/30 03:24:37;;;;;;;8.20;7.40;;;;;;;;;;6269653;22;20070;-78
2023/03/30 03:27:22;;;;;;;9.10;8.25;;;;;;;;;;6271913;22;20017;-77
2023/03/30 03:30:02;;;;;;;8.88;7.72;;;;;;;;;;6245748;22;20336;-77
2023/03/30 03:32:34;;;;;;;9.95;8.95;;;;;;;;;;6271985;22;20494;-79
2023/03/30 03:35:00;;;;;;;10.13;9.13;;;;;;;;;;6246590;22;20019;-78
2023/03/30 03:37:27;;;;;;;9.60;8.60;;;;;;;;;;6246448;22;20172;-78
2023/03/30 03:39:53;;;;;;;9.32;8.43;;;;;;;;;;6273371;22;20003;-78
2023/03/30 03:42:19;;;;;;;10.00;8.80;;;;;;;;;;6272148;22;20012;-78
2023/03/30 03:44:59;;;;;;;9.98;9.05;;;;;;;;;;6272130;22;20452;-78
2023/03/30 03:47:25;;;;;;;13.90;9.32;;;;;;;;;;6221511;22;20460;-78
2023/03/30 03:49:52;;;;;;;11.95;9.15;;;;;;;;;;6246755;22;20058;-78
2023/03/30 03:52:18;;;;;;;9.88;8.85;;;;;;;;;;6245126;22;20102;-78
2023/03/30 03:54:44;;;;;;;9.50;8.60;;;;;;;;;;6246607;22;20011;-76
2023/03/30 03:57:10;;;;;;;11.23;8.75;;;;;;;;;;6273996;22;20022;-77
2023/03/30 03:59:36;;;;;;;9.43;8.23;;;;;;;;;;6272895;22;20012;-76
2023/03/30 04:02:04;;;;;;;9.85;8.30;;;;;;;;;;6221712;22;20018;-77
2023/03/30 04:04:30;;;;;;;10.80;8.68;;;;;;;;;;6272166;22;20102;-78
2023/03/30 04:06:56;;;;;;;8.90;8.10;;;;;;;;;;6274912;22;20012;-77
2023/03/30 04:09:23;;;;;;;8.73;7.85;;;;;;;;;;6274580;22;20020;-79
2023/03/30 04:12:15;;;;;;;9.65;7.80;;;;;;;;;;6276302;22;20047;-79
2023/03/30 04:15:06;;;;;;;11.60;8.00;;;;;;;;;;6258596;22;20007;-80
2023/03/30 04:17:57;;;;;;;9.20;8.15;;;;;;;;;;6257706;22;20064;-81
2023/03/30 04:20:49;;;;;;;11.63;8.13;;;;;;;;;;6258818;22;20224;-80
2023/03/30 04:23:35;;;;;;;10.02;8.40;;;;;;;;;;6258800;22;20106;-81
2023/03/30 04:26:21;;;;;;;8.95;8.15;;;;;;;;;;6228796;22;20019;-82
2023/03/30 04:28:52;;;;;;;9.02;8.15;;;;;;;;;;6274099;22;20456;-80
2023/03/30 04:31:50;;;;;;;11.07;8.10;;;;;;;;;;6245186;22;20042;-80
2023/03/30 04:34:36;;;;;;;7.22;6.43;;;;;;;;;;6270610;22;20019;-78
2023/03/30 04:37:17;;;;;;;9.82;8.82;;;;;;;;;;6270149;22;20012;-78
2023/03/30 04:39:56;;;;;;;10.63;8.57;;;;;;;;;;6241609;22;20490;-79
2023/03/30 04:42:33;;;;;;;10.27;9.10;;;;;;;;;;6272222;22;20130;-80
2023/03/30 04:45:18;;;;;;;12.32;8.88;;;;;;;;;;6269686;22;20019;-79
2023/03/30 04:47:58;;;;;;;9.90;9.00;;;;;;;;;;6220463;22;20459;-79
2023/03/30 04:50:43;;;;;;;10.07;9.05;;;;;;;;;;6269387;22;20015;-80
2023/03/30 04:53:10;;;;;;;11.68;9.07;;;;;;;;;;6271045;22;20468;-80
2023/03/30 04:55:59;;;;;;;11.98;9.40;;;;;;;;;;6259372;22;20398;-79
2023/03/30 04:58:51;;;;;;;13.30;10.18;;;;;;;;;;6266948;22;20308;-79
2023/03/30 05:01:25;;;;;;;15.13;9.50;;;;;;;;;;6244180;22;20014;-80
2023/03/30 05:04:10;;;;;;;10.20;9.05;;;;;;;;;;6270338;22;20008;-80
2023/03/30 05:06:56;;;;;;;9.55;8.63;;;;;;;;;;6270081;22;20533;-79
2023/03/30 05:09:29;;;;;;;10.73;9.63;;;;;;;;;;6270190;22;20042;-80
2023/03/30 05:12:17;;;;;;;13.55;9.63;;;;;;;;;;6242509;22;20015;-80
2023/03/30 05:14:55;;;;;;;12.27;8.98;;;;;;;;;;6242846;22;20018;-79
2023/03/30 05:17:39;;;;;;;9.65;8.75;;;;;;;;;;6253633;22;20031;-82
2023/03/30 05:20:37;;;;;;;10.57;8.15;;;;;;;;;;6291324;22;20034;-85
2023/03/30 05:23:11;;;;;;;7.63;6.93;;;;;;;;;;6285481;22;20011;-83
2023/03/30 05:25:56;;;;;;;10.02;8.30;;;;;;;;;;6285759;22;20035;-84
2023/03/30 05:28:42;;;;;;;9.55;8.65;;;;;;;;;;6268512;22;20012;-84
2023/03/30 05:31:40;;;;;;;12.32;8.75;;;;;;;;;;6214845;22;20015;-83
2023/03/30 05:34:07;;;;;;;9.68;8.77;;;;;;;;;;6284966;22;20102;-83
2023/03/30 05:37:05;;;;;;;10.48;9.48;;;;;;;;;;6220811;22;20007;-82
2023/03/30 05:39:35;;;;;;;7.97;6.93;;;;;;;;;;6249038;22;20016;-81
2023/03/30 05:42:30;;;;;;;9.55;8.70;;;;;;;;;;6253889;22;20394;-81
2023/03/30 05:45:31;;;;;;;8.77;7.88;;;;;;;;;;6252777;22;20022;-81
2023/03/30 05:48:26;;;;;;;13.73;12.27;;;;;;;;;;6273534;22;20094;-82
2023/03/30 05:51:06;;;;;;;8.10;7.40;;;;;;;;;;6245803;22;20023;-81
2023/03/30 05:53:53;;;;;;;8.10;7.32;;;;;;;;;;6198953;22;20020;-82
2023/03/30 05:56:45;;;;;;;7.70;7.00;;;;;;;;;;6271126;22;20050;-82
2023/03/30 05:59:38;;;;;;;7.82;6.85;;;;;;;;;;6267266;22;20049;-81
2023/03/30 06:02:16;;;;;;;8.25;6.35;;;;;;;;;;6244848;22;20015;-81
2023/03/30 06:04:44;;;;;;;7.82;7.13;;;;;;;;;;6244599;22;20018;-81
2023/03/30 06:07:10;;;;;;;8.15;7.35;;;;;;;;;;6271834;22;20726;-81
2023/03/30 06:09:36;;;;;;;10.35;8.52;;;;;;;;;;6272423;22;20015;-81
2023/03/30 06:12:09;;;;;;;14.23;9.07;;;;;;;;;;6245066;22;20019;-81
2023/03/30 06:14:37;;;;;;;8.55;7.75;;;;;;;;;;6220155;22;20011;-81
2023/03/30 06:17:22;;;;;;;7.82;7.13;;;;;;;;;;6245405;22;20022;-80
2023/03/30 06:19:48;;;;;;;9.38;7.80;;;;;;;;;;6270172;22;20012;-82
2023/03/30 06:22:14;;;;;;;6.35;5.80;;;;;;;;;;6272933;22;20548;-82
2023/03/30 06:24:52;;;;;;;6.43;5.93;;;;;;;;;;6270357;22;20007;-80
2023/03/30 06:27:19;;;;;;;7.00;6.40;;;;;;;;;;6245392;22;20064;-82
2023/03/30 06:29:45;;;;;;;5.60;5.20;;;;;;;;;;6272515;22;20504;-81
2023/03/30 06:32:11;;;;;;;5.20;4.90;;;;;;;;;;6245532;22;20047;-80
2023/03/30 06:34:53;;;;;;;5.22;4.22;;;;;;;;;;6271476;22;20039;-82
2023/03/30 06:37:22;;;;;;;4.55;4.15;;;;;;;;;;6246988;22;20369;-81
2023/03/30 06:39:49;;;;;;;5.15;4.75;;;;;;;;;;6270964;22;20279;-79
2023/03/30 06:42:15;;;;;;;5.00;4.60;;;;;;;;;;6271231;22;20444;-81
2023/03/30 06:45:19;;;;;;;5.57;4.45;;;;;;;;;;6178197;23;20483;-83
2023/03/30 06:47:46;;;;;;;9.60;3.80;;;;;;;;;;6155760;23;20024;-82
2023/03/30 06:50:13;;;;;;;3.95;3.67;;;;;;;;;;6218058;22;20018;-81
2023/03/30 06:52:58;;;;;;;4.80;4.50;;;;;;;;;;6271414;22;20390;-79
2023/03/30 06:55:29;;;;;;;4.63;4.22;;;;;;;;;;6270192;22;20466;-80
2023/03/30 06:57:55;;;;;;;4.60;4.30;;;;;;;;;;6244340;22;20091;-79
2023/03/30 07:00:21;;;;;;;4.30;4.00;;;;;;;;;;6244556;22;20012;-80
2023/03/30 07:03:06;;;;;;;5.35;4.85;;;;;;;;;;6271704;22;20057;-81
2023/03/30 07:05:36;;;;;;;4.93;4.53;;;;;;;;;;6242827;22;20043;-79
2023/03/30 07:08:28;;;;;;;5.70;5.20;;;;;;;;;;6266489;22;20020;-80
2023/03/30 07:10:55;;;;;;;6.05;5.55;;;;;;;;;;6269014;22;20074;-80
2023/03/30 07:13:24;;;;;;;6.13;5.47;;;;;;;;;;6243959;22;20372;-79
2023/03/30 07:15:51;;;;;;;6.75;6.15;;;;;;;;;;6269074;22;20012;-78
2023/03/30 07:18:17;;;;;;;5.65;5.15;;;;;;;;;;6243871;22;20016;-78
2023/03/30 07:20:43;;;;;;;18.20;5.38;;;;;;;;;;6243224;22;20077;-78
2023/03/30 07:23:18;;;;;;;5.45;5.05;;;;;;;;;;6243976;22;20008;-77
2023/03/30 07:25:46;;;;;;;6.30;5.25;;;;;;;;;;6218226;22;20073;-78
2023/03/30 07:28:15;;;;;;;5.15;4.63;;;;;;;;;;6243816;22;20011;-79
2023/03/30 07:30:43;;;;;;;4.97;4.60;;;;;;;;;;6243455;22;20012;-80
2023/03/30 07:33:10;;;;;;;6.68;6.07;;;;;;;;;;6243853;22;20027;-80
2023/03/30 07:35:41;;;;;;;6.50;6.00;;;;;;;;;;6271370;22;20012;-80
2023/03/30 07:38:08;;;;;;;6.05;5.55;;;;;;;;;;6244486;22;20027;-79
2023/03/30 07:40:39;;;;;;;5.97;5.47;;;;;;;;;;6244717;22;20094;-80
2023/03/30 07:43:06;;;;;;;5.28;4.78;;;;;;;;;;6244012;22;20046;-78
2023/03/30 07:45:32;;;;;;;4.97;4.47;;;;;;;;;;6269518;22;20058;-78
2023/03/30 07:47:58;;;;;;;5.22;4.82;;;;;;;;;;6217842;22;20366;-79
2023/03/30 07:50:24;;;;;;;5.45;4.90;;;;;;;;;;6270743;22;20008;-78
2023/03/30 07:52:52;;;;;;;4.80;4.40;;;;;;;;;;6268884;22;20031;-78
2023/03/30 07:55:18;;;;;;;9.55;5.07;;;;;;;;;;6243806;22;20014;-79
2023/03/30 07:58:07;;;;;;;5.32;4.82;;;;;;;;;;6244229;22;20146;-80
2023/03/30 08:00:33;;;;;;;4.97;4.47;;;;;;;;;;6280439;22;20441;-79
2023/03/30 08:03:18;;;;;;;4.88;4.43;;;;;;;;;;6271682;22;20012;-79
2023/03/30 08:05:50;;;;;;;3.45;3.13;;;;;;;;;;6268460;22;20016;-79
2023/03/30 08:08:19;;;;;;;3.50;3.30;;;;;;;;;;6269538;22;20011;-78
2023/03/30 08:10:45;;;;;;;3.95;3.65;;;;;;;;;;6246647;22;20051;-79
2023/03/30 08:13:11;;;;;;;3.25;3.05;;;;;;;;;;6265082;22;20016;-76
2023/03/30 08:15:38;;;;;;;3.72;3.40;;;;;;;;;;6214311;23;20009;-77
2023/03/30 08:18:06;;;;;;;3.25;3.05;;;;;;;;;;6242176;22;20346;-75
2023/03/30 08:20:36;;;;;;;4.63;3.60;;;;;;;;;;6240646;23;20020;-77
2023/03/30 08:23:02;;;;;;;4.57;4.18;;;;;;;;;;6240051;23;20094;-79
2023/03/30 08:25:28;;;;;;;10.05;4.28;;;;;;;;;;6242199;22;20042;-76
2023/03/30 08:27:55;;;;;;;4.60;4.30;;;;;;;;;;6242816;22;20514;-77
2023/03/30 08:30:21;;;;;;;4.20;3.90;;;;;;;;;;6241688;22;20066;-75
2023/03/30 08:32:47;;;;;;;4.70;4.38;;;;;;;;;;6241377;22;20043;-77
2023/03/30 08:35:13;;;;;;;5.75;3.80;;;;;;;;;;6242384;22;20019;-79
2023/03/30 08:37:39;;;;;;;3.95;3.65;;;;;;;;;;6242593;22;20043;-78
2023/03/30 08:40:08;;;;;;;5.97;4.30;;;;;;;;;;6243362;22;20326;-77
2023/03/30 08:42:39;;;;;;;3.50;3.30;;;;;;;;;;6243910;23;20050;-79
2023/03/30 08:45:07;;;;;;;4.80;3.47;;;;;;;;;;6246452;22;20004;-79
2023/03/30 08:47:37;;;;;;;3.42;2.40;;;;;;;;;;6257328;23;20361;-78
2023/03/30 08:50:13;;;;;;;3.00;2.80;;;;;;;;;;6257455;22;20091;-77
2023/03/30 08:52:40;;;;;;;3.78;3.47;;;;;;;;;;6226472;23;20491;-77
2023/03/30 08:55:25;;;;;;;3.60;3.30;;;;;;;;;;6242930;23;20019;-81
2023/03/30 08:57:56;;;;;;;4.18;3.83;;;;;;;;;;6247973;22;20018;-81
2023/03/30 09:00:26;;;;;;;4.22;3.85;;;;;;;;;;6247431;23;20064;-82
2023/03/30 09:02:54;;;;;;;3.10;2.90;;;;;;;;;;6248807;22;20019;-81
2023/03/30 09:05:21;;;;;;;4.50;2.75;;;;;;;;;;6216737;23;20035;-76
2023/03/30 09:07:47;;;;;;;3.33;3.13;;;;;;;;;;6239693;23;20065;-78
2023/03/30 09:10:13;;;;;;;3.83;3.53;;;;;;;;;;6247773;22;20019;-82
2023/03/30 09:12:39;;;;;;;3.75;3.45;;;;;;;;;;6273828;22;20026;-81
2023/03/30 09:15:15;;;;;;;3.67;3.45;;;;;;;;;;6271528;22;20011;-77
2023/03/30 09:17:43;;;;;;;4.13;3.88;;;;;;;;;;6244549;22;20011;-78
2023/03/30 09:20:14;;;;;;;3.85;3.55;;;;;;;;;;6244580;22;20038;-79
2023/03/30 09:22:41;;;;;;;4.18;3.85;;;;;;;;;;6272109;22;20399;-77
2023/03/30 09:25:14;;;;;;;3.65;2.88;;;;;;;;;;6244974;22;20012;-78
2023/03/30 09:27:41;;;;;;;4.03;3.58;;;;;;;;;;6273250;22;20098;-79
2023/03/30 09:30:30;;;;;;;2.60;2.50;;;;;;;;;;6270789;22;20516;-80
2023/03/30 09:32:56;;;;;;;6.10;2.97;;;;;;;;;;6245113;22;20089;-79
2023/03/30 09:35:24;;;;;;;3.17;2.97;;;;;;;;;;6245236;22;20007;-80
2023/03/30 09:37:50;;;;;;;3.75;3.05;;;;;;;;;;6245979;22;20011;-79
2023/03/30 09:40:16;;;;;;;3.20;2.92;;;;;;;;;;6272098;22;20018;-78
2023/03/30 09:42:46;;;;;;;11.73;7.50;;;;;;;;;;6271440;22;20039;-81
2023/03/30 09:45:26;;;;;;;4.53;3.30;;;;;;;;;;6245615;22;20029;-81
2023/03/30 09:47:52;;;;;;;3.45;3.15;;;;;;;;;;6271574;22;20699;-80
2023/03/30 09:50:18;;;;;;;7.68;3.33;;;;;;;;;;6246469;22;20099;-77
2023/03/30 09:53:00;;;;;;;6.68;2.80;;;;;;;;;;6246542;22;20429;-81
2023/03/30 09:55:33;;;;;;;3.55;3.28;;;;;;;;;;6247714;22;20034;-81
2023/03/30 09:58:17;;;;;;;3.08;2.88;;;;;;;;;;6272409;22;20012;-79
2023/03/30 10:00:44;;;;;;;5.40;2.70;;;;;;;;;;6245810;22;20015;-81
2023/03/30 10:03:20;;;;;;;3.40;3.10;;;;;;;;;;6250378;22;20012;-80
2023/03/30 10:05:48;;;;;;;6.05;3.00;;;;;;;;;;6277442;22;20011;-81
2023/03/30 10:08:18;;;;;;;3.05;2.60;;;;;;;;;;6244556;22;20015;-78
2023/03/30 10:10:44;;;;;;;2.53;2.43;;;;;;;;;;6245112;22;20119;-79
2023/03/30 10:13:14;;;;;;;3.67;3.38;;;;;;;;;;6271937;22;20456;-78
2023/03/30 10:15:43;;;;;;;5.72;4.13;;;;;;;;;;6245093;22;20766;-80
2023/03/30 10:18:18;;;;;;;4.88;3.03;;;;;;;;;;6246011;22;20019;-81
2023/03/30 10:20:50;;;;;;;3.30;3.10;;;;;;;;;;6272246;22;20011;-81
2023/03/30 10:23:17;;;;;;;3.97;2.65;;;;;;;;;;6243870;22;20011;-75
2023/03/30 10:25:45;;;;;;;2.97;2.78;;;;;;;;;;6270771;22;20031;-76
2023/03/30 10:28:14;;;;;;;3.70;3.40;;;;;;;;;;6243599;22;20506;-79
2023/03/30 10:30:40;;;;;;;3.55;2.90;;;;;;;;;;6271282;22;20072;-77
2023/03/30 10:33:07;;;;;;;4.97;3.33;;;;;;;;;;6270057;22;20024;-78
2023/03/30 10:35:34;;;;;;;8.75;3.20;;;;;;;;;;6243403;22;20042;-75
2023/03/30 10:38:00;;;;;;;3.83;3.08;;;;;;;;;;6270782;22;20018;-78
2023/03/30 10:40:27;;;;;;;4.85;3.00;;;;;;;;;;6243785;22;20011;-77
2023/03/30 10:42:56;;;;;;;3.05;2.85;;;;;;;;;;6243990;22;20511;-79
2023/03/30 10:45:46;;;;;;;7.22;3.50;;;;;;;;;;6219323;22;20474;-77
2023/03/30 10:48:16;;;;;;;3.22;3.00;;;;;;;;;;6224305;22;20472;-77
2023/03/30 10:50:46;;;;;;;3.03;2.85;;;;;;;;;;6244177;22;20015;-79
2023/03/30 10:53:29;;;;;;;2.58;2.47;;;;;;;;;;6243673;22;20019;-81
2023/03/30 10:56:04;;;;;;;4.57;3.72;;;;;;;;;;6218520;22;20015;-76
2023/03/30 10:58:48;;;;;;;5.43;3.55;;;;;;;;;;6243943;22;20047;-77
2023/03/30 11:01:13;;;;;;;8.77;3.13;;;;;;;;;;6243465;22;20039;-77
2023/03/30 11:03:41;;;;;;;4.38;4.05;;;;;;;;;;6274072;22;20018;-78
2023/03/30 11:06:45;;;;;;;3.58;3.33;;;;;;;;;;6246359;22;20360;-79
2023/03/30 11:09:15;;;;;;;4.53;4.22;;;;;;;;;;6117383;23;20017;-76
2023/03/30 11:11:46;;;;;;;3.13;2.92;;;;;;;;;;6087920;23;20096;-76
2023/03/30 11:14:18;;;;;;;5.50;3.55;;;;;;;;;;6167998;23;20026;-77
2023/03/30 11:16:46;;;;;;;;;;;;;;;;;;6213712;23;20036;-77
2023/03/30 11:19:27;;;;;;;2.42;2.22;;;;;;;;;;6239656;23;19908;-81
2023/03/30 11:21:57;;;;;;;5.22;3.25;;;;;;;;;;6242830;23;20078;-81
2023/03/30 11:24:23;;;;;;;4.22;3.83;;;;;;;;;;6215420;23;20058;-80
2023/03/30 11:26:52;;;;;;;4.10;3.80;;;;;;;;;;6214408;23;20019;-81
2023/03/30 11:29:31;;;;;;;2.15;2.05;;;;;;;;;;6240624;23;20476;-79
2023/03/30 11:32:15;;;;;;;5.63;3.70;;;;;;;;;;6213144;23;20040;-78
2023/03/30 11:34:50;;;;;;;5.32;4.65;;;;;;;;;;6240872;23;20016;-80
2023/03/30 11:37:28;;;;;;;4.22;3.92;;;;;;;;;;6214924;23;20092;-81
2023/03/30 11:39:56;;;;;;;5.10;4.60;;;;;;;;;;6242959;23;20020;-83
2023/03/30 11:42:21;;;;;;;4.78;4.38;;;;;;;;;;6242850;23;20015;-79
2023/03/30 11:44:48;;;;;;;4.40;4.00;;;;;;;;;;6214554;23;20016;-81
2023/03/30 11:47:19;;;;;;;3.35;3.15;;;;;;;;;;6242756;23;20112;-81
2023/03/30 11:49:45;;;;;;;;;;;;;;;;;;6218098;23;20062;-78
2023/03/30 11:52:14;;;;;;;4.15;3.88;;;;;;;;;;6219534;23;19911;-80
2023/03/30 11:54:47;;;;;;;3.25;3.13;;;;;;;;;;6243751;23;20016;-79
2023/03/30 11:57:13;;;;;;;3.10;2.90;;;;;;;;;;6241957;23;20005;-78
2023/03/30 12:00:07;;;;;;;4.10;3.72;;;;;;;;;;6244245;23;20016;-79
2023/03/30 12:02:36;;;;;;;4.68;4.28;;;;;;;;;;6215266;23;20410;-78
2023/03/30 12:05:04;;;;;;;6.85;5.65;;;;;;;;;;6222695;23;20015;-81
2023/03/30 12:07:53;;;;;;;5.85;5.45;;;;;;;;;;6234019;23;20111;-84
2023/03/30 12:10:23;;;;;;;4.70;4.40;;;;;;;;;;6200427;22;20022;-84
2023/03/30 12:12:50;;;;;;;4.53;4.22;;;;;;;;;;6263688;22;20053;-84
2023/03/30 12:15:30;;;;;;;5.72;5.32;;;;;;;;;;6232217;22;20023;-82
2023/03/30 12:18:01;;;;;;;2.90;2.55;;;;;;;;;;6274696;22;20015;-81
2023/03/30 12:20:27;;;;;;;;;;;;;;;;;;6248433;22;20007;-81
2023/03/30 12:23:01;;;;;;;5.68;5.18;;;;;;;;;;6275820;22;20340;-81
2023/03/30 12:25:30;;;;;;;5.93;4.75;;;;;;;;;;6248883;22;20012;-80
2023/03/30 12:28:14;;;;;;;4.88;4.57;;;;;;;;;;6276623;22;20065;-80
2023/03/30 12:30:42;;;;;;;12.25;5.65;;;;;;;;;;6284520;22;20012;-85
2023/03/30 12:33:10;;;;;;;5.40;5.00;;;;;;;;;;6277933;22;20027;-83
2023/03/30 12:35:55;;;;;;;4.93;4.38;;;;;;;;;;6287566;22;20012;-83
2023/03/30 12:38:24;;;;;;;4.80;4.50;;;;;;;;;;6280840;22;20007;-83
2023/03/30 12:40:54;;;;;;;6.40;4.75;;;;;;;;;;6281523;22;20011;-84
2023/03/30 12:43:20;;;;;;;9.52;4.28;;;;;;;;;;6257721;22;20037;-82
2023/03/30 12:46:01;;;;;;;4.03;3.80;;;;;;;;;;6283081;22;20015;-85
2023/03/30 12:48:42;;;;;;;4.22;3.92;;;;;;;;;;6262771;22;20011;-84
2023/03/30 12:51:15;;;;;;;3.67;3.47;;;;;;;;;;6259409;22;20042;-84
2023/03/30 12:53:56;;;;;;;4.22;3.92;;;;;;;;;;6258535;22;20019;-83
2023/03/30 12:56:21;;;;;;;;;;;;;;;;;;6262409;22;20011;-81
2023/03/30 12:58:48;;;;;;;6.05;3.42;;;;;;;;;;6290864;22;19978;-82
2023/03/30 13:01:26;;;;;;;5.32;4.85;;;;;;;;;;6284994;22;20015;-82
2023/03/30 13:03:52;;;;;;;3.80;3.60;;;;;;;;;;6281876;22;20011;-81
2023/03/30 13:06:26;;;;;;;3.65;3.35;;;;;;;;;;6283399;22;20012;-84
2023/03/30 13:08:56;;;;;;;4.88;4.40;;;;;;;;;;6287633;22;20015;-83
2023/03/30 13:11:22;;;;;;;4.78;4.15;;;;;;;;;;6300471;22;20019;-82
2023/03/30 13:13:49;;;;;;;5.88;4.22;;;;;;;;;;6296419;22;20472;-84
2023/03/30 13:16:34;;;;;;;10.60;4.10;;;;;;;;;;6294719;22;20007;-83
2023/03/30 13:19:08;;;;;;;8.93;4.00;;;;;;;;;;6292608;22;20016;-84
2023/03/30 13:21:45;;;;;;;3.53;3.30;;;;;;;;;;6296749;22;20015;-87
2023/03/30 13:24:29;;;;;;;3.10;2.90;;;;;;;;;;6297988;22;19992;-85
2023/03/30 13:27:08;;;;;;;5.28;3.13;;;;;;;;;;6296904;22;20002;-85
2023/03/30 13:29:34;;;;;;;3.92;3.58;;;;;;;;;;6252258;22;20015;-85
2023/03/30 13:32:03;;;;;;;2.25;2.15;;;;;;;;;;6288464;22;20016;-84
2023/03/30 13:34:48;;;;;;;3.38;3.17;;;;;;;;;;6266871;22;20076;-86
2023/03/30 13:37:40;;;;;;;2.83;1.90;;;;;;;;;;6265827;22;20012;-83
2023/03/30 13:40:09;;;;;;;4.15;3.85;;;;;;;;;;6292199;22;20054;-84
2023/03/30 13:42:47;;;;;;;6.97;3.70;;;;;;;;;;6270157;22;20011;-83
2023/03/30 13:45:20;;;;;;;5.65;3.72;;;;;;;;;;6299188;22;20015;-87
2023/03/30 13:47:58;;;;;;;2.90;2.80;;;;;;;;;;6272513;22;20031;-83
2023/03/30 13:50:29;;;;;;;4.70;3.50;;;;;;;;;;6299164;22;20015;-83
2023/03/30 13:53:02;;;;;;;3.97;3.67;;;;;;;;;;6272479;22;20016;-86
2023/03/30 13:55:30;;;;;;;5.68;3.72;;;;;;;;;;6300218;22;20498;-83
2023/03/30 13:58:03;;;;;;;4.13;3.83;;;;;;;;;;6273551;22;20072;-86
2023/03/30 14:00:42;;;;;;;4.53;4.22;;;;;;;;;;6273544;22;20016;-83
2023/03/30 14:03:27;;;;;;;4.40;4.10;;;;;;;;;;6273947;22;20018;-83
2023/03/30 14:05:53;;;;;;;11.48;4.63;;;;;;;;;;6301885;22;20004;-82
2023/03/30 14:08:19;;;;;;;3.50;3.30;;;;;;;;;;6302143;22;20007;-81
2023/03/30 14:10:49;;;;;;;3.78;3.47;;;;;;;;;;6275467;22;20015;-81
2023/03/30 14:13:15;;;;;;;8.68;3.88;;;;;;;;;;6276792;22;20018;-82
2023/03/30 14:15:41;;;;;;;4.22;3.83;;;;;;;;;;6302707;22;20076;-85
2023/03/30 14:18:10;;;;;;;3.60;3.30;;;;;;;;;;6303339;22;20015;-83
2023/03/30 14:20:45;;;;;;;5.38;4.88;;;;;;;;;;6319475;22;20018;-90
2023/03/30 14:23:30;;;;;;;2.42;2.33;;;;;;;;;;6330674;22;20014;-83
2023/03/30 14:25:59;;;;;;;6.72;4.55;;;;;;;;;;6329210;22;20038;-83
2023/03/30 14:28:26;;;;;;;2.65;2.55;;;;;;;;;;6328749;22;20538;-83
2023/03/30 14:31:01;;;;;;;3.92;3.72;;;;;;;;;;6322727;22;20058;-88
2023/03/30 14:33:27;;;;;;;4.40;4.10;;;;;;;;;;6312561;22;20019;-83
2023/03/30 14:35:57;;;;;;;2.92;2.72;;;;;;;;;;6318358;22;20007;-85
2023/03/30 14:38:23;;;;;;;3.03;2.92;;;;;;;;;;6322309;22;20080;-83
2023/03/30 14:40:49;;;;;;;7.43;6.82;;;;;;;;;;6324560;22;19996;-83
2023/03/30 14:43:15;;;;;;;9.20;5.60;;;;;;;;;;6322263;22;20022;-86
2023/03/30 14:45:41;;;;;;;9.63;6.35;;;;;;;;;;6326399;22;19991;-84
2023/03/30 14:48:10;;;;;;;7.45;5.25;;;;;;;;;;6301672;22;20024;-84
2023/03/30 14:50:35;;;;;;;6.97;6.28;;;;;;;;;;6302229;22;20029;-84
2023/03/30 14:53:01;;;;;;;12.20;7.03;;;;;;;;;;6305373;22;20019;-80
2023/03/30 14:55:27;;;;;;;7.18;6.55;;;;;;;;;;6324503;22;20015;-83
2023/03/30 14:57:56;;;;;;;11.18;6.75;;;;;;;;;;6297928;22;20015;-86
2023/03/30 15:00:23;;;;;;;9.73;6.78;;;;;;;;;;6300548;22;20102;-82
2023/03/30 15:02:51;;;;;;;6.30;5.50;;;;;;;;;;6300095;22;20043;-85
2023/03/30 15:05:17;;;;;;;7.40;6.70;;;;;;;;;;6300272;22;20015;-86
2023/03/30 15:07:47;;;;;;;5.97;5.57;;;;;;;;;;6296936;22;20050;-82